Forside
METAR-TAF:

METAR-TAF

Lufthavne :

Eveleth-Virginia Municipal Airport

Eveleth, Minnesota, USA

Breddekreds: 47-24N, længdekreds: 092-30W, højde: 421 m

Aktuelle vejr

Denne rapport blev lavet for 11 minutter siden, kl. 10:44 UTC
Vind stille
Temperatur -3°C
Fugtighed 100%
Tryk 1020 hPa
Sigt: 16.1 km
Spredte skyer i en højde af 9000 ft

METAR: KEVM 231044Z AUTO 00000KT 10SM SCT090 M03/M03 A3011 RMK AO2

Tid: 05:55 (10:55 UTC)


TAF: fraværende

Vejrobservationer og prognoser fra mere end 4000 lufthavne (METAR og TAF).

De gule og røde prikker repræsenterer de meteorologiske stationer.

Flyt musen over at se navnet på stationen.

Så klik over at se vejr observationer og prognoser.

At skifte det kort: Klik på de grønne knapper med et sort kors for at zoome ind; på den grønne knap med en bindestreg for at zoome ud; eller på de grønne pile for tilstødende kort.


METAR-TAF: